createdAt,value
2023-03-29T00:00:14.202Z,100244.47
2023-03-29T00:05:18.192Z,100238.78
2023-03-29T00:10:24.138Z,100235.69
2023-03-29T00:15:26.209Z,100222.88
2023-03-29T00:20:28.983Z,100222.56
2023-03-29T00:25:30.709Z,100211.81
2023-03-29T00:30:32.326Z,100199.03
2023-03-29T00:35:34.174Z,100202.31
2023-03-29T00:40:42.454Z,100185.16
2023-03-29T00:45:44.093Z,100183.50
2023-03-29T00:50:52.820Z,100190.13
2023-03-29T00:56:11.237Z,100175.22
2023-03-29T01:01:17.632Z,100169.16
2023-03-29T01:06:24.745Z,100159.88
2023-03-29T01:11:36.048Z,100150.06
2023-03-29T01:16:38.587Z,100144.53
2023-03-29T01:21:47.933Z,100141.63
2023-03-29T01:26:57.545Z,100128.50
2023-03-29T01:32:11.956Z,100116.78
2023-03-29T01:37:24.751Z,100119.59
2023-03-29T01:42:38.340Z,100114.19
2023-03-29T01:47:50.420Z,100121.69
2023-03-29T01:53:14.548Z,100112.22
2023-03-29T01:58:19.108Z,100118.31
2023-03-29T02:03:26.631Z,100108.13
2023-03-29T02:08:29.902Z,100105.34
2023-03-29T02:13:32.297Z,100100.69
2023-03-29T02:18:34.975Z,100095.03
2023-03-29T02:23:46.745Z,100097.06
2023-03-29T02:28:48.572Z,100095.59
2023-03-29T02:33:53.127Z,100088.88
2023-03-29T02:38:56.032Z,100087.28
2023-03-29T02:43:59.612Z,100083.06
2023-03-29T02:49:01.362Z,100075.66
2023-03-29T02:54:15.551Z,100071.59
2023-03-29T02:59:22.720Z,100071.22
2023-03-29T03:04:25.535Z,100054.94
2023-03-29T03:09:27.476Z,100060.94
2023-03-29T03:14:29.515Z,100047.88
2023-03-29T03:19:31.608Z,100053.94
2023-03-29T03:24:33.598Z,100041.09
2023-03-29T03:29:36.512Z,100046.94
2023-03-29T03:34:38.698Z,100043.41
2023-03-29T03:39:40.371Z,100041.69
2023-03-29T03:44:42.608Z,100038.75
2023-03-29T03:49:44.301Z,100046.63
2023-03-29T03:54:46.768Z,100040.59
2023-03-29T03:59:49.017Z,100036.38
2023-03-29T04:04:50.793Z,100024.41
2023-03-29T04:09:53.135Z,100033.19
2023-03-29T04:14:54.823Z,100031.19
2023-03-29T04:19:57.544Z,100026.50
2023-03-29T04:24:59.198Z,100028.03
2023-03-29T04:30:00.927Z,100016.38
2023-03-29T04:35:04.834Z,100015.44
2023-03-29T04:40:14.454Z,100011.97
2023-03-29T04:45:18.241Z,99999.06
2023-03-29T04:50:20.075Z,100005.16
2023-03-29T04:55:21.698Z,100014.81
2023-03-29T05:00:27.376Z,100013.94
2023-03-29T05:05:29.026Z,100014.22
2023-03-29T05:10:30.658Z,100015.00
2023-03-29T05:15:32.806Z,100017.72
2023-03-29T05:20:34.478Z,100027.16
2023-03-29T05:25:36.172Z,100017.25
2023-03-29T05:30:38.118Z,100020.50
2023-03-29T05:35:39.899Z,100017.81
2023-03-29T05:40:41.630Z,100017.50
2023-03-29T05:45:43.434Z,100010.66
2023-03-29T05:50:49.615Z,100012.22
2023-03-29T05:55:51.681Z,100013.00
2023-03-29T06:00:53.485Z,100012.16
2023-03-29T06:05:58.165Z,100023.84
2023-03-29T06:11:04.485Z,100016.19
2023-03-29T06:16:07.375Z,100008.59
2023-03-29T06:21:09.458Z,100007.34
2023-03-29T06:26:11.110Z,100011.69
2023-03-29T06:31:13.269Z,100014.34
2023-03-29T06:36:16.898Z,100012.78
2023-03-29T06:41:18.562Z,100013.22
2023-03-29T06:46:20.275Z,100015.09
2023-03-29T06:51:23.377Z,100010.34
2023-03-29T06:56:25.952Z,100013.31
2023-03-29T07:01:28.562Z,100019.53
2023-03-29T07:06:31.141Z,100024.66
2023-03-29T07:11:36.478Z,100031.13
2023-03-29T07:16:38.437Z,100032.28
2023-03-29T07:21:40.067Z,100027.09
2023-03-29T07:26:52.264Z,100023.84
2023-03-29T07:32:02.369Z,100029.56
2023-03-29T07:37:03.983Z,100047.81
2023-03-29T07:42:06.697Z,100040.75
2023-03-29T07:47:08.408Z,100044.66
2023-03-29T07:52:10.110Z,100043.41
2023-03-29T07:57:12.237Z,100040.03
2023-03-29T08:02:16.649Z,100033.59
2023-03-29T08:07:20.043Z,100028.78
2023-03-29T08:12:24.988Z,100035.41
2023-03-29T08:17:26.799Z,100032.88
2023-03-29T08:22:28.550Z,100020.66
2023-03-29T08:27:33.426Z,100016.31
2023-03-29T08:32:36.904Z,100013.81
2023-03-29T08:37:38.750Z,100014.88
2023-03-29T08:42:56.802Z,100012.41
2023-03-29T08:48:04.245Z,100023.41
2023-03-29T08:53:15.512Z,100012.94
2023-03-29T08:58:21.221Z,100024.25
2023-03-29T09:03:31.643Z,100024.81
2023-03-29T09:08:40.251Z,100012.25
2023-03-29T09:13:50.890Z,100007.69
2023-03-29T09:18:59.264Z,100001.13
2023-03-29T09:24:27.136Z,100007.16
2023-03-29T09:29:41.190Z,100002.84
2023-03-29T09:34:54.439Z,100007.59
2023-03-29T09:39:57.629Z,100009.97
2023-03-29T09:45:08.569Z,99999.00
2023-03-29T09:50:30.263Z,100004.31
2023-03-29T09:55:36.512Z,100005.38
2023-03-29T10:07:00.731Z,99978.59
2023-03-29T10:25:14.366Z,99962.97
2023-03-29T10:30:23.123Z,99947.44
2023-03-29T10:35:44.385Z,99956.31
2023-03-29T10:40:48.150Z,99947.69
2023-03-29T10:45:52.200Z,99954.28
2023-03-29T10:50:57.385Z,99949.47
2023-03-29T10:56:24.507Z,99935.34
2023-03-29T11:08:07.297Z,99924.19
2023-03-29T11:13:21.071Z,99916.31
2023-03-29T11:18:28.859Z,99916.19
2023-03-29T11:23:39.851Z,99909.09
2023-03-29T11:28:57.735Z,99906.47
2023-03-29T11:34:08.133Z,99895.00
2023-03-29T11:39:55.927Z,99892.88
2023-03-29T11:45:00.131Z,99883.97
2023-03-29T11:50:15.563Z,99882.03
2023-03-29T11:55:23.649Z,99886.28
2023-03-29T12:00:31.017Z,99876.03
2023-03-29T12:05:39.763Z,99863.31
2023-03-29T12:10:48.073Z,99861.00
2023-03-29T12:16:16.652Z,99857.47
2023-03-29T12:21:23.306Z,99850.78
2023-03-29T12:26:52.798Z,99846.91
2023-03-29T12:38:28.721Z,99840.72
2023-03-29T12:49:58.957Z,99840.91
2023-03-29T12:55:04.520Z,99816.22
2023-03-29T13:00:42.694Z,99812.09
2023-03-29T13:05:44.560Z,99800.78
2023-03-29T13:10:53.463Z,99793.97
2023-03-29T13:15:56.299Z,99778.00
2023-03-29T13:21:09.748Z,99774.09
2023-03-29T15:20:51.486Z,99683.09
2023-03-29T15:32:35.884Z,99680.22
2023-03-29T15:37:37.888Z,99676.06
2023-03-29T15:42:39.690Z,99673.44
2023-03-29T15:47:41.360Z,99657.34
2023-03-29T15:52:43.204Z,99645.53
2023-03-29T15:57:48.596Z,99630.34
2023-03-29T16:02:51.462Z,99633.69
2023-03-29T16:07:53.086Z,99636.31
2023-03-29T16:12:54.699Z,99629.66
2023-03-29T16:17:56.616Z,99618.94
2023-03-29T16:22:58.353Z,99609.63
2023-03-29T16:27:59.998Z,99611.72
2023-03-29T16:33:06.306Z,99600.94
2023-03-29T16:50:52.479Z,99600.78
2023-03-29T16:55:54.654Z,99593.22
2023-03-29T17:00:57.182Z,99590.31
2023-03-29T17:05:59.274Z,99596.94
2023-03-29T17:11:01.455Z,99583.59
2023-03-29T17:16:03.974Z,99577.84
2023-03-29T17:21:06.292Z,99559.19
2023-03-29T18:48:08.198Z,99576.59
2023-03-29T18:54:33.318Z,99582.19
2023-03-29T18:59:36.625Z,99574.38
2023-03-29T19:04:38.572Z,99582.72
2023-03-29T19:09:41.732Z,99586.91
2023-03-29T19:14:43.596Z,99573.25
2023-03-29T19:19:45.566Z,99565.22
2023-03-29T19:24:47.370Z,99563.78
2023-03-29T19:29:49.735Z,99559.72
2023-03-29T19:34:52.251Z,99557.78
2023-03-29T19:39:55.797Z,99545.28
2023-03-29T19:44:57.520Z,99536.28
2023-03-29T19:50:00.131Z,99529.19
2023-03-29T19:55:02.261Z,99522.38
2023-03-29T20:00:08.071Z,99519.34
2023-03-29T20:05:15.702Z,99505.78
2023-03-29T20:10:17.592Z,99502.84
2023-03-29T20:15:19.480Z,99495.97
2023-03-29T20:20:23.077Z,99484.66
2023-03-29T20:25:24.999Z,99481.47
2023-03-29T20:30:26.921Z,99469.38
2023-03-29T20:35:28.775Z,99461.66
2023-03-29T20:40:31.628Z,99463.16
2023-03-29T20:45:46.188Z,99458.66
2023-03-29T20:50:54.289Z,99450.22
2023-03-29T20:55:56.006Z,99438.69
2023-03-29T21:00:58.907Z,99428.84
2023-03-29T21:06:02.352Z,99434.88
2023-03-29T21:11:04.237Z,99437.81
2023-03-29T21:16:06.992Z,99418.16
2023-03-29T21:21:10.340Z,99416.41
2023-03-29T21:26:12.068Z,99409.00
2023-03-29T21:31:13.869Z,99410.06
2023-03-29T21:36:15.855Z,99409.81
2023-03-29T21:41:18.738Z,99401.97
2023-03-29T21:46:20.660Z,99385.22
2023-03-29T21:51:22.414Z,99371.00
2023-03-29T21:56:24.127Z,99369.78
2023-03-29T22:01:25.909Z,99368.81
2023-03-29T22:06:27.636Z,99367.03
2023-03-29T22:11:30.484Z,99362.25
2023-03-29T22:16:32.438Z,99367.72
2023-03-29T22:21:37.376Z,99364.88
2023-03-29T22:26:39.195Z,99365.09
2023-03-29T22:31:41.038Z,99372.22
2023-03-29T22:36:42.772Z,99370.34
2023-03-29T22:41:44.566Z,99367.91
2023-03-29T22:46:46.820Z,99358.94
2023-03-29T22:51:48.895Z,99360.59
2023-03-29T22:56:51.050Z,99353.38
2023-03-29T23:01:53.087Z,99358.53
2023-03-29T23:06:54.906Z,99352.03
2023-03-29T23:11:56.647Z,99359.69
2023-03-29T23:16:58.396Z,99346.00
2023-03-29T23:22:00.163Z,99345.56
2023-03-29T23:27:03.019Z,99329.78
2023-03-29T23:32:05.025Z,99328.53
2023-03-29T23:37:06.755Z,99323.06
2023-03-29T23:42:08.539Z,99328.72
2023-03-29T23:47:10.254Z,99330.81
2023-03-29T23:52:12.589Z,99318.59
2023-03-29T23:57:14.345Z,99312.94
